Time;durP1;ratioP1;P1;durP2;ratioP2;P2;SDS_P1;SDS_P2;PMS_P1;PMS_P2;Temp;Humidity;BMP_temperature;BMP_pressure;BME280_temperature;BME280_humidity;BME280_pressure;Samples;Min_cycle;Max_cycle;Signal;HPM_P1;HPM_P2
2022/03/27 00:02:05;;;;;;;28.98;19.02;;;12.30;99.90;;;;;;4685025;28;10000600;-68
2022/03/27 00:04:30;;;;;;;28.92;18.23;;;12.30;99.90;;;;;;5026255;28;20155;-68
2022/03/27 00:06:56;;;;;;;33.47;18.67;;;12.30;99.90;;;;;;5039158;28;20161;-68
2022/03/27 00:09:22;;;;;;;29.67;18.55;;;12.30;99.90;;;;;;5029512;28;20113;-68
2022/03/27 00:11:47;;;;;;;30.75;18.77;;;12.20;99.90;;;;;;5037627;28;20025;-68
2022/03/27 00:14:13;;;;;;;31.80;18.73;;;12.20;99.90;;;;;;5026095;28;20036;-67
2022/03/27 00:16:38;;;;;;;30.33;19.00;;;12.20;99.90;;;;;;5033870;28;20036;-68
2022/03/27 00:19:04;;;;;;;34.05;19.42;;;12.20;99.90;;;;;;5036647;28;20037;-68
2022/03/27 00:21:30;;;;;;;31.70;19.23;;;12.20;99.90;;;;;;5036580;28;20523;-68
2022/03/27 00:23:55;;;;;;;30.25;19.52;;;12.10;99.90;;;;;;5036249;28;20596;-68
2022/03/27 00:26:22;;;;;;;31.13;18.88;;;12.10;99.90;;;;;;5031864;28;20293;-68
2022/03/27 00:28:48;;;;;;;31.48;18.98;;;12.10;99.90;;;;;;5026702;28;20048;-68
2022/03/27 00:31:14;;;;;;;33.70;19.65;;;12.10;99.90;;;;;;5042986;28;20041;-68
2022/03/27 00:33:42;;;;;;;28.80;19.15;;;12.10;99.90;;;;;;5028314;28;20040;-68
2022/03/27 00:36:10;;;;;;;33.92;19.70;;;12.10;99.90;;;;;;5049379;28;20517;-68
2022/03/27 00:38:37;;;;;;;33.80;19.23;;;12.10;99.90;;;;;;5042633;28;20481;-67
2022/03/27 00:41:04;;;;;;;29.95;18.42;;;12.10;99.90;;;;;;5045337;28;20067;-68
2022/03/27 00:43:30;;;;;;;29.67;18.58;;;12.10;99.90;;;;;;5046571;28;20025;-68
2022/03/27 00:45:56;;;;;;;26.52;16.67;;;12.10;99.90;;;;;;5049665;28;20495;-68
2022/03/27 00:48:22;;;;;;;25.42;16.40;;;12.10;99.90;;;;;;5042229;28;20057;-68
2022/03/27 00:50:51;;;;;;;23.92;14.55;;;12.10;99.90;;;;;;5040636;28;20033;-68
2022/03/27 00:53:17;;;;;;;23.30;14.18;;;12.00;99.90;;;;;;5051154;28;20033;-68
2022/03/27 00:55:46;;;;;;;22.35;13.85;;;12.00;99.90;;;;;;5050795;28;20024;-68
2022/03/27 00:58:13;;;;;;;22.50;12.18;;;12.10;99.90;;;;;;5049781;28;20450;-68
2022/03/27 01:00:39;;;;;;;16.27;11.20;;;12.00;99.90;;;;;;5039349;28;20064;-68
2022/03/27 01:03:16;;;;;;;16.70;10.77;;;12.00;99.90;;;;;;5043416;28;20064;-67
2022/03/27 01:05:44;;;;;;;15.75;10.27;;;12.00;99.90;;;;;;5038705;28;20043;-67
2022/03/27 01:08:13;;;;;;;17.48;10.98;;;12.00;99.90;;;;;;5049833;28;20038;-67
2022/03/27 01:10:40;;;;;;;16.98;10.63;;;12.00;99.90;;;;;;5036417;28;20384;-67
2022/03/27 01:13:18;;;;;;;16.95;10.93;;;11.90;99.90;;;;;;5044728;28;20057;-68
2022/03/27 01:15:51;;;;;;;15.93;10.30;;;12.00;99.90;;;;;;5028682;28;20165;-68
2022/03/27 01:18:17;;;;;;;18.15;10.63;;;11.90;99.90;;;;;;5044686;28;20047;-68
2022/03/27 01:20:43;;;;;;;17.08;10.75;;;11.90;99.90;;;;;;5036457;28;20022;-68
2022/03/27 01:23:13;;;;;;;15.90;10.48;;;11.80;99.90;;;;;;5046563;28;20040;-68
2022/03/27 01:25:41;;;;;;;19.25;10.70;;;11.80;99.90;;;;;;5046360;28;20052;-68
2022/03/27 01:28:08;;;;;;;15.23;10.48;;;11.80;99.90;;;;;;5035964;28;20124;-68
2022/03/27 01:30:35;;;;;;;16.48;9.93;;;11.80;99.90;;;;;;5040604;28;20120;-68
2022/03/27 01:33:02;;;;;;;15.07;9.80;;;11.70;99.90;;;;;;5037329;28;20484;-67
2022/03/27 01:35:28;;;;;;;16.13;9.95;;;11.70;99.90;;;;;;5043756;28;20505;-68
2022/03/27 01:37:54;;;;;;;16.25;10.18;;;11.70;99.90;;;;;;5051416;28;20036;-68
2022/03/27 01:40:20;;;;;;;20.45;10.35;;;11.70;99.90;;;;;;5037070;28;20187;-68
2022/03/27 01:42:46;;;;;;;15.45;9.90;;;11.70;99.90;;;;;;5053925;28;20485;-67
2022/03/27 01:45:12;;;;;;;17.75;10.10;;;11.60;99.90;;;;;;5033331;28;20033;-68
2022/03/27 01:47:38;;;;;;;16.25;9.75;;;11.60;99.90;;;;;;5055444;28;20090;-68
2022/03/27 01:50:06;;;;;;;17.80;9.35;;;11.60;99.90;;;;;;5035943;28;20452;-68
2022/03/27 01:52:32;;;;;;;15.32;9.15;;;11.50;99.90;;;;;;5047881;28;20510;-68
2022/03/27 01:54:58;;;;;;;14.57;9.18;;;11.50;99.90;;;;;;5045297;28;20032;-68
2022/03/27 01:57:23;;;;;;;14.23;9.10;;;11.50;99.90;;;;;;5040779;28;20544;-68
2022/03/27 01:59:49;;;;;;;14.80;9.32;;;11.40;99.90;;;;;;5038909;28;20052;-68
2022/03/27 02:02:18;;;;;;;13.57;9.52;;;11.40;99.90;;;;;;5037864;28;20033;-68
2022/03/27 02:04:43;;;;;;;14.77;9.45;;;11.40;99.90;;;;;;5041275;28;20032;-68
2022/03/27 02:07:09;;;;;;;13.95;8.88;;;11.30;99.90;;;;;;5036398;28;20031;-68
2022/03/27 02:09:34;;;;;;;13.35;8.85;;;11.30;99.90;;;;;;5040034;28;20382;-68
2022/03/27 02:12:00;;;;;;;15.30;9.45;;;11.30;99.90;;;;;;5046819;28;20029;-68
2022/03/27 02:14:25;;;;;;;14.10;8.82;;;11.20;99.90;;;;;;5039526;28;20075;-68
2022/03/27 02:16:51;;;;;;;12.60;8.80;;;11.20;99.90;;;;;;5036476;28;20108;-68
2022/03/27 02:19:17;;;;;;;13.68;8.93;;;11.20;99.90;;;;;;5045034;28;20064;-68
2022/03/27 02:21:43;;;;;;;12.93;8.52;;;11.10;99.90;;;;;;5038683;28;20033;-68
2022/03/27 02:24:10;;;;;;;14.95;8.73;;;11.10;99.90;;;;;;5044224;28;20037;-67
2022/03/27 02:26:44;;;;;;;12.18;8.35;;;11.10;99.90;;;;;;5026350;28;20025;-67
2022/03/27 02:29:13;;;;;;;12.75;8.75;;;11.10;99.90;;;;;;5030218;28;20029;-68
2022/03/27 02:31:39;;;;;;;14.20;8.40;;;11.10;99.90;;;;;;5038320;28;20060;-68
2022/03/27 02:34:05;;;;;;;11.65;8.40;;;11.00;99.90;;;;;;5041660;28;20024;-67
2022/03/27 02:36:31;;;;;;;13.02;8.65;;;11.00;99.90;;;;;;5032617;28;20097;-68
2022/03/27 02:38:57;;;;;;;12.73;9.30;;;11.10;99.90;;;;;;5052432;28;20036;-68
2022/03/27 02:41:22;;;;;;;12.35;8.60;;;11.10;99.90;;;;;;5042055;28;20130;-68
2022/03/27 02:43:48;;;;;;;12.55;8.93;;;11.00;99.90;;;;;;5038836;28;20049;-68
2022/03/27 02:46:14;;;;;;;12.32;9.00;;;11.00;99.90;;;;;;5035252;28;20056;-67
2022/03/27 02:48:39;;;;;;;12.63;9.43;;;11.00;99.90;;;;;;5040410;28;20083;-68
2022/03/27 02:51:05;;;;;;;12.68;8.95;;;11.00;99.90;;;;;;5044071;28;20184;-68
2022/03/27 02:53:31;;;;;;;13.18;9.90;;;11.00;99.90;;;;;;5043421;28;20036;-68
2022/03/27 02:55:56;;;;;;;12.55;9.50;;;11.00;99.90;;;;;;5051464;28;20030;-68
2022/03/27 02:58:22;;;;;;;14.55;10.00;;;11.00;99.90;;;;;;5047420;28;20083;-68
2022/03/27 03:00:48;;;;;;;13.50;9.13;;;11.00;99.90;;;;;;5042271;28;20361;-68
2022/03/27 03:03:14;;;;;;;14.15;10.52;;;10.90;99.90;;;;;;5043067;28;20082;-68
2022/03/27 03:05:40;;;;;;;13.93;9.80;;;10.90;99.90;;;;;;5036788;28;20036;-68
2022/03/27 03:08:11;;;;;;;12.75;9.38;;;10.90;99.90;;;;;;5040912;28;20033;-68
2022/03/27 03:10:38;;;;;;;13.70;10.18;;;10.80;99.90;;;;;;5034075;28;20048;-68
2022/03/27 03:13:04;;;;;;;14.18;10.05;;;10.80;99.90;;;;;;5036121;28;20040;-68
2022/03/27 03:15:30;;;;;;;14.73;10.50;;;10.80;99.90;;;;;;5037843;28;20455;-68
2022/03/27 03:17:56;;;;;;;16.73;11.05;;;10.80;99.90;;;;;;5036924;28;20250;-68
2022/03/27 03:20:22;;;;;;;13.15;10.00;;;10.80;99.90;;;;;;5039638;28;20513;-68
2022/03/27 03:22:48;;;;;;;13.10;10.43;;;10.70;99.90;;;;;;5036247;28;20090;-68
2022/03/27 03:25:14;;;;;;;14.20;10.50;;;10.70;99.90;;;;;;5039582;28;20029;-68
2022/03/27 03:27:39;;;;;;;13.02;9.85;;;10.60;99.90;;;;;;5046551;28;20060;-68
2022/03/27 03:30:07;;;;;;;13.00;10.23;;;10.60;99.90;;;;;;5042258;28;20132;-67
2022/03/27 03:32:34;;;;;;;11.90;9.52;;;10.50;99.90;;;;;;5019848;28;21930;-67
2022/03/27 03:35:01;;;;;;;12.35;9.15;;;10.40;99.90;;;;;;5030813;28;20061;-68
2022/03/27 03:37:26;;;;;;;12.80;9.45;;;10.30;99.90;;;;;;5035043;28;20029;-67
2022/03/27 03:39:52;;;;;;;14.10;10.05;;;10.00;99.90;;;;;;5033931;28;20026;-68
2022/03/27 03:42:18;;;;;;;13.63;10.05;;;9.90;99.90;;;;;;5034636;28;20438;-68
2022/03/27 03:44:44;;;;;;;11.70;9.45;;;9.90;99.90;;;;;;5040823;28;20040;-68
2022/03/27 03:47:10;;;;;;;12.73;9.38;;;9.70;99.90;;;;;;5036545;28;20029;-68
2022/03/27 03:49:37;;;;;;;11.80;9.40;;;9.60;99.90;;;;;;5035375;28;20104;-67
2022/03/27 03:52:02;;;;;;;12.93;10.23;;;9.60;99.90;;;;;;5035151;28;20041;-68
2022/03/27 03:54:29;;;;;;;13.10;10.30;;;9.50;99.90;;;;;;5028496;28;20021;-68
2022/03/27 03:56:54;;;;;;;14.70;11.10;;;9.50;99.90;;;;;;5035285;28;20086;-68
2022/03/27 03:59:20;;;;;;;17.00;12.18;;;9.50;99.90;;;;;;5028411;28;20131;-67
2022/03/27 04:01:45;;;;;;;16.83;12.15;;;9.60;99.90;;;;;;5030198;28;20033;-68
2022/03/27 04:04:11;;;;;;;15.50;11.90;;;9.70;99.90;;;;;;5031317;28;20481;-67
2022/03/27 04:06:36;;;;;;;17.65;12.80;;;9.80;99.90;;;;;;5041634;28;20132;-67
2022/03/27 04:09:02;;;;;;;18.70;13.02;;;9.80;99.90;;;;;;5041060;28;20029;-68
2022/03/27 04:11:28;;;;;;;19.10;14.90;;;9.90;99.90;;;;;;5031998;28;20115;-68
2022/03/27 04:13:53;;;;;;;22.20;15.15;;;9.90;99.90;;;;;;5034920;28;20021;-68
2022/03/27 04:16:19;;;;;;;19.40;15.05;;;9.90;99.90;;;;;;5035864;28;20390;-68
2022/03/27 04:18:45;;;;;;;22.85;15.45;;;9.90;99.90;;;;;;5033905;28;20159;-68
2022/03/27 04:21:11;;;;;;;23.20;15.90;;;9.90;99.90;;;;;;5027847;28;20110;-68
2022/03/27 04:23:37;;;;;;;20.52;15.27;;;9.90;99.90;;;;;;5033808;28;20540;-68
2022/03/27 04:26:03;;;;;;;23.00;17.00;;;9.90;99.90;;;;;;5045914;28;20021;-68
2022/03/27 04:28:29;;;;;;;22.02;16.65;;;9.90;99.90;;;;;;5033068;28;20030;-68
2022/03/27 04:30:55;;;;;;;22.70;16.30;;;9.90;99.90;;;;;;5039673;28;20041;-68
2022/03/27 04:33:21;;;;;;;25.35;17.85;;;9.90;99.90;;;;;;5039753;28;20682;-68
2022/03/27 04:35:47;;;;;;;26.67;18.13;;;9.90;99.90;;;;;;5027868;28;20452;-68
2022/03/27 04:38:13;;;;;;;27.88;17.83;;;9.90;99.90;;;;;;5033551;28;20063;-68
2022/03/27 04:40:39;;;;;;;26.02;17.88;;;9.80;99.90;;;;;;5036326;28;20115;-68
2022/03/27 04:43:05;;;;;;;25.48;18.13;;;9.80;99.90;;;;;;5039620;28;20112;-68
2022/03/27 04:45:31;;;;;;;26.40;18.33;;;9.80;99.90;;;;;;5034406;28;20074;-68
2022/03/27 04:47:57;;;;;;;26.25;19.00;;;9.80;99.90;;;;;;5041995;28;20044;-67
2022/03/27 04:50:23;;;;;;;27.02;18.98;;;9.80;99.90;;;;;;5047839;28;20400;-68
2022/03/27 04:52:48;;;;;;;26.67;19.00;;;9.80;99.90;;;;;;5043997;28;20052;-67
2022/03/27 04:55:14;;;;;;;28.40;19.15;;;9.80;99.90;;;;;;5034922;28;20025;-68
2022/03/27 04:57:41;;;;;;;28.13;18.88;;;9.70;99.90;;;;;;5042452;28;20037;-68
2022/03/27 05:00:11;;;;;;;27.70;19.33;;;9.70;99.90;;;;;;5051908;28;20033;-68
2022/03/27 05:02:38;;;;;;;26.40;18.38;;;9.70;99.90;;;;;;5042464;28;20396;-68
2022/03/27 05:05:05;;;;;;;26.48;19.13;;;9.70;99.90;;;;;;5041735;28;20037;-67
2022/03/27 05:07:30;;;;;;;29.60;19.63;;;9.70;99.90;;;;;;5045004;28;20029;-68
2022/03/27 05:09:56;;;;;;;28.75;19.73;;;9.60;99.90;;;;;;5044585;28;20218;-67
2022/03/27 05:12:22;;;;;;;25.38;18.85;;;9.70;99.90;;;;;;5048839;28;20056;-68
2022/03/27 05:14:48;;;;;;;29.77;19.90;;;9.60;99.90;;;;;;5033108;28;20385;-67
2022/03/27 05:17:13;;;;;;;28.77;19.42;;;9.60;99.90;;;;;;5049075;28;20413;-68
2022/03/27 05:19:39;;;;;;;30.13;19.55;;;9.60;99.90;;;;;;5053384;28;20033;-68
2022/03/27 05:22:05;;;;;;;28.35;19.45;;;9.60;99.90;;;;;;5038837;28;20029;-68
2022/03/27 05:24:30;;;;;;;28.38;19.42;;;9.60;99.90;;;;;;5042629;28;20047;-67
2022/03/27 05:26:56;;;;;;;25.98;18.38;;;9.60;99.90;;;;;;5049611;28;20120;-67
2022/03/27 05:29:22;;;;;;;28.20;19.05;;;9.60;99.90;;;;;;5041572;28;20168;-68
2022/03/27 05:31:47;;;;;;;29.48;18.35;;;9.60;99.90;;;;;;5040904;28;20051;-68
2022/03/27 05:34:13;;;;;;;26.42;18.85;;;9.60;99.90;;;;;;5031970;28;20113;-68
2022/03/27 05:36:38;;;;;;;26.98;17.77;;;9.60;99.90;;;;;;5045696;28;20028;-68
2022/03/27 05:39:04;;;;;;;26.05;18.40;;;9.60;99.90;;;;;;5046311;28;20039;-68
2022/03/27 05:41:30;;;;;;;25.50;18.20;;;9.60;99.90;;;;;;5030423;28;20040;-68
2022/03/27 05:43:56;;;;;;;24.67;17.85;;;9.60;99.90;;;;;;5039624;28;20257;-68
2022/03/27 05:46:21;;;;;;;27.73;17.98;;;9.60;99.90;;;;;;5044661;28;20504;-68
2022/03/27 05:48:47;;;;;;;28.27;18.95;;;9.60;99.90;;;;;;5045816;28;20043;-68
2022/03/27 05:51:13;;;;;;;36.20;23.48;;;9.60;99.90;;;;;;5046493;28;20032;-68
2022/03/27 05:53:38;;;;;;;41.42;26.60;;;9.50;99.90;;;;;;5031162;28;20020;-67
2022/03/27 05:56:05;;;;;;;34.05;22.58;;;9.40;99.90;;;;;;5029716;28;20178;-68
2022/03/27 05:58:31;;;;;;;34.83;22.25;;;9.20;99.90;;;;;;5035498;28;20068;-68
2022/03/27 06:00:56;;;;;;;30.85;20.38;;;9.20;99.90;;;;;;5033684;28;20060;-68
2022/03/27 06:03:22;;;;;;;35.28;22.50;;;9.00;99.90;;;;;;5035824;28;20110;-67
2022/03/27 06:05:49;;;;;;;34.17;21.85;;;8.90;99.90;;;;;;5042480;28;20613;-68
2022/03/27 06:08:15;;;;;;;32.70;22.48;;;8.80;99.90;;;;;;5033253;28;20037;-67
2022/03/27 06:10:41;;;;;;;34.97;22.10;;;8.70;99.90;;;;;;5044929;28;20090;-68
2022/03/27 06:13:10;;;;;;;40.17;22.90;;;8.70;99.90;;;;;;5042014;28;20460;-67
2022/03/27 06:15:36;;;;;;;36.30;24.30;;;8.70;99.90;;;;;;5035184;28;20025;-67
2022/03/27 06:18:01;;;;;;;35.88;23.92;;;8.60;99.90;;;;;;5037565;28;20031;-68
2022/03/27 06:20:29;;;;;;;39.05;24.50;;;8.60;99.90;;;;;;5033086;28;20021;-67
2022/03/27 06:22:56;;;;;;;43.72;24.35;;;;;;;;;;4338228;28;10000818;-67
2022/03/27 06:25:24;;;;;;;41.45;24.55;;;8.60;99.90;;;;;;5038869;28;20016;-68
2022/03/27 06:27:51;;;;;;;37.60;23.40;;;8.60;99.90;;;;;;5039535;28;20060;-68
2022/03/27 06:30:21;;;;;;;37.95;23.63;;;8.60;99.90;;;;;;5040169;28;20033;-67
2022/03/27 06:32:47;;;;;;;35.63;23.27;;;8.60;99.90;;;;;;5043085;28;20028;-67
2022/03/27 06:35:15;;;;;;;49.47;28.48;;;8.60;99.90;;;;;;5031699;28;20324;-67
2022/03/27 06:37:41;;;;;;;49.63;27.77;;;8.70;99.90;;;;;;5041327;28;20062;-68
2022/03/27 06:40:08;;;;;;;38.28;24.52;;;8.70;99.90;;;;;;5029169;28;20043;-67
2022/03/27 06:42:34;;;;;;;41.10;25.33;;;8.80;99.90;;;;;;5037654;28;20473;-67
2022/03/27 06:45:01;;;;;;;34.22;22.55;;;8.80;99.90;;;;;;5033834;28;21210;-68
2022/03/27 06:47:27;;;;;;;34.60;23.05;;;8.80;99.90;;;;;;5036073;28;20456;-68
2022/03/27 06:49:58;;;;;;;34.60;23.02;;;8.90;99.90;;;;;;5031566;28;20493;-68
2022/03/27 06:52:26;;;;;;;35.33;23.08;;;9.00;99.90;;;;;;5041619;28;20047;-68
2022/03/27 06:54:52;;;;;;;35.53;23.60;;;9.00;99.90;;;;;;5024397;28;20025;-68
2022/03/27 06:57:18;;;;;;;34.72;23.13;;;9.10;99.90;;;;;;5031309;28;20045;-68
2022/03/27 07:05:13;;;;;;;32.90;22.13;;;9.40;99.90;;;;;;5034946;28;20094;-68
2022/03/27 07:07:39;;;;;;;33.03;22.15;;;9.50;99.90;;;;;;5023587;28;20084;-68
2022/03/27 07:10:05;;;;;;;32.13;21.67;;;9.60;99.90;;;;;;5035484;28;20445;-68
2022/03/27 07:12:30;;;;;;;33.42;22.50;;;9.70;99.90;;;;;;5065106;28;20036;-68
2022/03/27 07:14:57;;;;;;;34.90;23.20;;;9.80;99.90;;;;;;5030085;28;20021;-67
2022/03/27 07:17:23;;;;;;;33.22;21.95;;;9.90;99.90;;;;;;5045163;28;20034;-67
2022/03/27 07:19:49;;;;;;;32.75;23.13;;;10.00;99.90;;;;;;5049217;28;20036;-67
2022/03/27 07:22:14;;;;;;;34.45;23.10;;;10.10;99.90;;;;;;5042451;28;20463;-67
2022/03/27 07:24:41;;;;;;;33.88;22.25;;;10.30;99.90;;;;;;5032460;28;20143;-67
2022/03/27 07:27:11;;;;;;;33.85;22.58;;;10.30;99.90;;;;;;5041247;28;20078;-67
2022/03/27 07:29:38;;;;;;;32.95;22.20;;;10.40;99.90;;;;;;5043440;28;20535;-68
2022/03/27 07:32:07;;;;;;;31.58;22.15;;;10.50;99.90;;;;;;5038190;28;20245;-67
2022/03/27 07:34:35;;;;;;;39.33;24.95;;;10.60;99.90;;;;;;5046159;28;20024;-68
2022/03/27 07:37:01;;;;;;;39.30;25.85;;;10.60;99.90;;;;;;5052012;28;20028;-68
2022/03/27 07:39:26;;;;;;;38.58;25.40;;;10.60;99.90;;;;;;5044438;28;20483;-67
2022/03/27 07:41:53;;;;;;;39.58;24.75;;;10.70;99.90;;;;;;5042947;28;20033;-67
2022/03/27 07:44:18;;;;;;;36.25;24.25;;;10.70;99.90;;;;;;5028350;28;20033;-69
2022/03/27 07:46:44;;;;;;;40.10;25.23;;;10.70;99.90;;;;;;5058946;28;20032;-69
2022/03/27 07:49:10;;;;;;;38.65;24.52;;;10.80;99.90;;;;;;5039094;28;20124;-70
2022/03/27 07:51:36;;;;;;;33.85;23.52;;;10.90;99.90;;;;;;5032392;28;20033;-69
2022/03/27 07:54:02;;;;;;;32.17;22.27;;;11.10;99.90;;;;;;5025304;28;20040;-69
2022/03/27 07:56:29;;;;;;;29.52;21.05;;;11.20;99.90;;;;;;5034143;28;20095;-69
2022/03/27 07:58:56;;;;;;;30.50;21.35;;;11.40;99.90;;;;;;5031722;28;20500;-70
2022/03/27 08:01:23;;;;;;;30.40;20.63;;;11.50;99.90;;;;;;5040542;28;20550;-69
2022/03/27 08:03:49;;;;;;;27.63;20.70;;;11.70;99.90;;;;;;5035121;28;20337;-69
2022/03/27 08:06:15;;;;;;;31.55;21.10;;;11.80;99.90;;;;;;5028674;28;20041;-69
2022/03/27 08:08:42;;;;;;;30.17;21.35;;;12.00;99.90;;;;;;5040192;28;20441;-70
2022/03/27 08:11:07;;;;;;;29.60;20.80;;;12.00;99.90;;;;;;5041819;28;20064;-69
2022/03/27 08:13:33;;;;;;;31.75;22.05;;;12.10;99.90;;;;;;5059807;28;20098;-70
2022/03/27 08:15:58;;;;;;;35.60;24.88;;;12.20;99.90;;;;;;5042206;28;20511;-71
2022/03/27 08:18:24;;;;;;;33.25;23.75;;;12.30;99.90;;;;;;5044021;28;20360;-70
2022/03/27 08:20:50;;;;;;;34.78;23.98;;;12.30;99.90;;;;;;5042485;28;20242;-70
2022/03/27 08:23:15;;;;;;;35.75;25.02;;;12.40;99.90;;;;;;5027210;28;20095;-70
2022/03/27 08:28:25;;;;;;;33.10;23.23;;;12.40;99.90;;;;;;5036014;28;20040;-69
2022/03/27 08:30:51;;;;;;;35.10;24.35;;;12.50;99.90;;;;;;5033490;28;20038;-69
2022/03/27 08:33:17;;;;;;;33.88;23.67;;;12.50;99.90;;;;;;5023854;28;20052;-69
2022/03/27 08:35:44;;;;;;;31.90;22.58;;;12.60;99.90;;;;;;5018899;28;20113;-69
2022/03/27 08:38:14;;;;;;;32.05;22.52;;;12.60;99.90;;;;;;5008527;28;20544;-69
2022/03/27 08:40:41;;;;;;;31.98;23.25;;;12.70;99.90;;;;;;5021812;28;20041;-69
2022/03/27 08:43:12;;;;;;;32.75;22.50;;;12.80;99.90;;;;;;5023347;28;20040;-69
2022/03/27 08:45:38;;;;;;;30.10;22.58;;;12.80;99.90;;;;;;5017076;28;20446;-69
2022/03/27 08:48:04;;;;;;;31.95;22.98;;;12.80;99.90;;;;;;5008060;28;20116;-69
2022/03/27 08:50:38;;;;;;;31.17;22.48;;;12.80;99.90;;;;;;5006701;28;20056;-69
2022/03/27 08:53:08;;;;;;;29.75;21.60;;;12.90;99.90;;;;;;5020349;28;20041;-69
2022/03/27 08:56:01;;;;;;;30.55;22.15;;;12.80;99.90;;;;;;5012263;28;20481;-70
2022/03/27 08:58:32;;;;;;;;;;;12.90;99.90;;;;;;5009861;28;20531;-70
2022/03/27 09:00:58;;;;;;;30.88;20.67;;;12.90;99.90;;;;;;5016190;28;20315;-70
2022/03/27 09:03:24;;;;;;;27.35;20.60;;;12.90;99.90;;;;;;5020259;28;20330;-70
2022/03/27 09:05:49;;;;;;;28.90;20.70;;;13.00;99.90;;;;;;5014744;28;20275;-70
2022/03/27 09:08:16;;;;;;;29.20;20.88;;;13.00;99.90;;;;;;5009530;28;20030;-70
2022/03/27 09:10:41;;;;;;;26.08;20.70;;;13.10;99.90;;;;;;5020411;28;20079;-70
2022/03/27 09:13:12;;;;;;;28.10;20.80;;;13.20;99.90;;;;;;5009470;28;20030;-70
2022/03/27 09:15:38;;;;;;;28.77;20.88;;;13.30;99.90;;;;;;5012272;28;20037;-70
2022/03/27 09:18:08;;;;;;;28.15;19.77;;;13.40;99.90;;;;;;5005333;28;20041;-70
2022/03/27 09:20:40;;;;;;;29.00;19.48;;;13.50;99.90;;;;;;5011783;28;20616;-70
2022/03/27 09:23:27;;;;;;;27.73;20.08;;;13.50;99.90;;;;;;5007424;28;20034;-71
2022/03/27 09:25:58;;;;;;;24.88;18.73;;;13.60;99.90;;;;;;5004899;28;20022;-71
2022/03/27 09:28:29;;;;;;;24.45;18.60;;;13.70;99.90;;;;;;5023556;28;20029;-70
2022/03/27 09:30:56;;;;;;;29.85;20.42;;;13.70;99.90;;;;;;5020225;28;20103;-71
2022/03/27 09:33:39;;;;;;;24.95;17.80;;;13.80;99.90;;;;;;5028915;28;20199;-71
2022/03/27 09:36:12;;;;;;;23.67;17.67;;;13.90;99.90;;;;;;5037947;28;20060;-71
2022/03/27 09:38:39;;;;;;;24.20;18.08;;;14.00;99.90;;;;;;5043925;28;20067;-71
2022/03/27 09:41:07;;;;;;;20.98;17.38;;;14.10;99.90;;;;;;5025536;28;20505;-71
2022/03/27 09:43:34;;;;;;;21.48;17.15;;;14.20;99.90;;;;;;5023262;28;20033;-70
2022/03/27 09:46:03;;;;;;;22.77;17.33;;;14.30;99.90;;;;;;5035718;28;20059;-70
2022/03/27 09:48:30;;;;;;;21.67;17.48;;;14.40;99.90;;;;;;5037130;28;20037;-70
2022/03/27 09:51:00;;;;;;;24.70;18.10;;;14.40;99.90;;;;;;5037152;28;20111;-71
2022/03/27 09:53:28;;;;;;;26.92;18.40;;;14.50;99.90;;;;;;5031108;28;20369;-70
2022/03/27 09:55:53;;;;;;;21.63;17.33;;;14.50;99.90;;;;;;5037533;28;20508;-70
2022/03/27 09:58:37;;;;;;;22.27;17.02;;;14.50;99.90;;;;;;5030969;28;20041;-70
2022/03/27 10:01:16;;;;;;;20.95;17.15;;;14.70;99.90;;;;;;5050129;28;20556;-70
2022/03/27 10:04:07;;;;;;;21.42;17.58;;;14.80;99.90;;;;;;5032190;28;20349;-70
2022/03/27 10:06:38;;;;;;;22.33;18.08;;;14.80;99.90;;;;;;5023749;28;20347;-71
2022/03/27 10:09:05;;;;;;;24.08;17.98;;;14.90;99.90;;;;;;5051201;28;20032;-69
2022/03/27 10:11:32;;;;;;;25.02;19.33;;;14.80;99.90;;;;;;5034518;28;20121;-69
2022/03/27 10:13:58;;;;;;;25.15;18.98;;;14.70;99.90;;;;;;5031730;28;20469;-70
2022/03/27 10:16:33;;;;;;;27.95;19.52;;;14.80;99.90;;;;;;5032065;28;20211;-68
2022/03/27 10:19:31;;;;;;;29.67;20.30;;;14.80;99.90;;;;;;5029504;28;20041;-69
2022/03/27 10:21:58;;;;;;;27.20;20.20;;;14.80;99.90;;;;;;5029959;28;20030;-69
2022/03/27 10:24:28;;;;;;;29.52;19.42;;;14.70;99.90;;;;;;5030405;28;20439;-68
2022/03/27 10:26:58;;;;;;;25.42;18.92;;;14.80;99.90;;;;;;5029911;28;20412;-69
2022/03/27 10:29:24;;;;;;;28.20;18.95;;;14.70;99.90;;;;;;5040034;28;20627;-69
2022/03/27 10:31:50;;;;;;;26.80;19.35;;;14.80;99.90;;;;;;5024241;28;20037;-68
2022/03/27 10:34:19;;;;;;;25.50;18.50;;;14.80;99.90;;;;;;5033371;28;20037;-68
2022/03/27 10:36:47;;;;;;;23.90;18.08;;;14.80;99.90;;;;;;5041426;28;20029;-69
2022/03/27 10:39:42;;;;;;;25.83;19.45;;;14.90;99.90;;;;;;5031545;28;20054;-69
2022/03/27 10:42:18;;;;;;;27.55;18.65;;;14.90;99.90;;;;;;5026666;28;20478;-69
2022/03/27 10:45:02;;;;;;;22.83;17.80;;;14.90;99.90;;;;;;5034076;28;20112;-68
2022/03/27 10:47:29;;;;;;;22.02;17.60;;;14.90;99.90;;;;;;5038165;28;20060;-69
2022/03/27 10:50:00;;;;;;;22.60;17.42;;;14.90;99.90;;;;;;5032838;28;20096;-69
2022/03/27 10:52:30;;;;;;;23.98;18.10;;;14.90;99.90;;;;;;5030169;28;20618;-69
2022/03/27 10:55:15;;;;;;;26.35;18.48;;;14.90;99.90;;;;;;5033911;28;20635;-69
2022/03/27 10:57:46;;;;;;;23.73;17.38;;;14.90;99.90;;;;;;5037522;28;20025;-68
2022/03/27 11:00:13;;;;;;;24.40;17.23;;;15.00;99.90;;;;;;5036964;28;20507;-68
2022/03/27 11:02:50;;;;;;;23.88;17.90;;;15.10;99.90;;;;;;5046339;28;20067;-68
2022/03/27 11:05:31;;;;;;;26.13;18.83;;;15.10;99.90;;;;;;5026431;28;20087;-67
2022/03/27 11:08:16;;;;;;;22.65;17.52;;;15.10;99.90;;;;;;5037410;28;20417;-67
2022/03/27 11:10:50;;;;;;;24.73;17.88;;;15.10;99.90;;;;;;5040487;28;20137;-67
2022/03/27 11:13:28;;;;;;;28.65;18.08;;;15.10;99.90;;;;;;5039224;28;20112;-67
2022/03/27 11:16:06;;;;;;;26.25;18.13;;;15.20;99.90;;;;;;5036433;28;20017;-67
2022/03/27 11:18:49;;;;;;;24.50;17.35;;;15.10;99.90;;;;;;5040309;28;20037;-68
2022/03/27 11:21:27;;;;;;;22.80;17.63;;;15.10;99.90;;;;;;5034195;28;20783;-68
2022/03/27 11:23:57;;;;;;;26.23;17.85;;;15.10;99.90;;;;;;5033471;28;20044;-68
2022/03/27 11:26:29;;;;;;;23.08;15.75;;;15.00;99.90;;;;;;5038446;28;20033;-68
2022/03/27 11:29:11;;;;;;;19.00;15.35;;;15.00;99.90;;;;;;5044618;28;20593;-68
2022/03/27 11:31:38;;;;;;;22.02;17.10;;;15.00;99.90;;;;;;5006845;28;20048;-68
2022/03/27 11:34:12;;;;;;;22.40;17.20;;;15.00;99.90;;;;;;5031145;28;20029;-69
2022/03/27 11:36:39;;;;;;;24.00;17.70;;;15.00;99.90;;;;;;5029742;28;20548;-69
2022/03/27 11:39:30;;;;;;;21.55;16.52;;;15.00;99.90;;;;;;5013840;28;20036;-69
2022/03/27 11:42:34;;;;;;;23.15;17.40;;;15.10;99.90;;;;;;5013290;28;20155;-69
2022/03/27 11:45:14;;;;;;;20.85;15.95;;;15.10;99.90;;;;;;5002541;28;20128;-69
2022/03/27 11:47:41;;;;;;;20.55;16.27;;;15.10;99.90;;;;;;5023658;28;20448;-69
2022/03/27 11:50:17;;;;;;;18.35;14.18;;;15.20;99.90;;;;;;5042292;28;20036;-70
2022/03/27 11:52:45;;;;;;;16.42;12.63;;;15.30;99.90;;;;;;5027377;28;20389;-69
2022/03/27 11:55:12;;;;;;;13.88;10.98;;;15.40;99.90;;;;;;5039752;28;20144;-70
2022/03/27 11:57:43;;;;;;;14.77;11.57;;;15.50;99.90;;;;;;5020541;28;20049;-69
2022/03/27 12:00:10;;;;;;;15.60;10.77;;;15.50;99.90;;;;;;5040819;28;20111;-69
2022/03/27 12:02:41;;;;;;;16.77;12.32;;;15.70;99.90;;;;;;5022198;28;20572;-69
2022/03/27 12:05:07;;;;;;;12.45;9.82;;;15.80;99.90;;;;;;5018398;28;20037;-69
2022/03/27 12:07:51;;;;;;;11.18;7.80;;;15.90;99.90;;;;;;5031821;28;20467;-69
2022/03/27 12:10:17;;;;;;;7.55;5.68;;;16.00;99.90;;;;;;5021322;28;20025;-70
2022/03/27 12:13:04;;;;;;;7.38;5.95;;;16.20;99.90;;;;;;5017235;28;20036;-70
2022/03/27 12:15:40;;;;;;;6.57;5.80;;;16.70;99.90;;;;;;5022832;28;20029;-69
2022/03/27 12:18:06;;;;;;;11.25;8.30;;;17.00;99.90;;;;;;5034964;28;20041;-67
2022/03/27 12:20:43;;;;;;;10.18;7.95;;;17.30;99.90;;;;;;5022926;28;20080;-68
2022/03/27 12:23:20;;;;;;;10.13;8.00;;;17.60;99.90;;;;;;5005628;28;20033;-67
2022/03/27 12:25:56;;;;;;;10.27;8.10;;;;;;;;;;5011071;28;20453;-68
2022/03/27 12:31:22;;;;;;;11.40;8.50;;;18.20;99.90;;;;;;5034015;28;20128;-67
2022/03/27 12:33:50;;;;;;;10.55;8.52;;;18.00;99.90;;;;;;5045314;28;20472;-67
2022/03/27 12:36:16;;;;;;;10.05;8.48;;;17.90;99.90;;;;;;5042320;28;20056;-68
2022/03/27 12:38:42;;;;;;;9.07;8.02;;;17.60;99.90;;;;;;5045560;28;20024;-67
2022/03/27 12:41:10;;;;;;;10.15;8.00;;;17.40;99.90;;;;;;5050649;28;20043;-68
2022/03/27 12:43:41;;;;;;;9.10;8.18;;;17.20;99.90;;;;;;5035963;28;20510;-67
2022/03/27 12:46:21;;;;;;;9.80;8.23;;;17.30;99.90;;;;;;5043971;28;20053;-67
2022/03/27 12:49:04;;;;;;;9.13;7.93;;;17.20;99.90;;;;;;5024989;28;20029;-68
2022/03/27 12:51:30;;;;;;;9.20;7.55;;;17.10;99.90;;;;;;5040507;28;20389;-67